Flight Track Log - Related Links

Times and Time Zones

All times are in EDT time to prevent confusion due to time zone crossing. See the AAY876 flight status page for this flight to view local times or setup timezone preferences in your user account.

Time Position Orientation Groundspeed Altitude Reporting Facility
EDT Latitude Longitude Course Direction KTS MPH feet Rate Location/Type
Thu 03:04:00 PM 27.9000 -82.6833 180° South 160 184 900  Level Tampa TRACON
Thu 03:05:12 PM 27.8333 -82.6833 180° South 216 249 3,300 1,444 Climbing Tampa TRACON
Thu 03:06:13 PM 27.8333 -82.7500 270° West 289 333 4,100 1,575 Climbing Tampa TRACON
Thu 03:07:52 PM 27.9433 -82.8244 329° Northwest 273 314 7,500 2,302 Climbing Jacksonville Center
Thu 03:08:52 PM 28.0289 -82.8267 359° North 273 314 10,200 1,900 Climbing Jacksonville Center
Thu 03:09:52 PM 28.1206 -82.8197 North 300 345 11,300 1,300 Climbing Jacksonville Center
Thu 03:10:52 PM 28.2272 -82.8125 North 341 392 12,800 1,900 Climbing Jacksonville Center
Thu 03:11:52 PM 28.3378 -82.7983 North 381 438 15,100 2,150 Climbing Jacksonville Center
Thu 03:12:52 PM 28.4483 -82.8217 349° North 392 451 17,100 1,600 Climbing Jacksonville Center
Thu 03:13:52 PM 28.5694 -82.8453 350° North 412 474 18,300 1,550 Climbing Jacksonville Center
Thu 03:14:52 PM 28.6883 -82.8714 349° North 427 491 20,200 1,700 Climbing Jacksonville Center
Thu 03:15:52 PM 28.7989 -82.8856 354° North 432 497 21,700 1,400 Climbing Jacksonville Center
Thu 03:16:52 PM 28.9222 -82.9139 349° North 437 503 23,000 1,550 Climbing Jacksonville Center
Thu 03:17:52 PM 29.0472 -82.9353 351° North 448 516 24,800 1,750 Climbing Jacksonville Center
Thu 03:18:52 PM 29.1706 -82.9617 349° North 448 516 26,500 1,400 Climbing Jacksonville Center
Thu 03:19:52 PM 29.2914 -82.9878 349° North 448 516 27,600 1,500 Climbing Jacksonville Center
Thu 03:20:52 PM 29.4125 -83.0094 351° North 443 510 29,500 1,200 Climbing Jacksonville Center
Thu 03:21:52 PM 29.5419 -83.0406 348° North 437 503 30,000 200 Climbing Jacksonville Center
Thu 03:22:52 PM 29.6547 -83.0789 344° North 428 493 29,900 -50 Descending Jacksonville Center
Thu 03:23:52 PM 29.7653 -83.1294 338° Northwest 423 487 29,900  Level Jacksonville Center
Thu 03:24:52 PM 29.8717 -83.1775 339° North 423 487 29,900  Level Jacksonville Center
Thu 03:25:52 PM 29.9697 -83.2233 338° Northwest 411 473 29,900  Level Jacksonville Center
Thu 03:26:52 PM 30.0906 -83.2767 339° North 419 482 29,900  Level Jacksonville Center
Thu 03:27:52 PM 30.1989 -83.3300 337° Northwest 419 482 29,900 100 Level Jacksonville Center
Thu 03:28:52 PM 30.3072 -83.3786 339° North 414 476 30,100 600 Climbing Jacksonville Center
Thu 03:29:52 PM 30.4158 -83.4297 338° Northwest 414 476 31,100 900 Climbing Jacksonville Center
Thu 03:30:52 PM 30.5242 -83.4811 338° Northwest 414 476 31,900 400 Climbing Jacksonville Center
Thu 03:31:52 PM 30.6303 -83.5322 337° Northwest 414 476 31,900 50 Level Jacksonville Center
Thu 03:32:52 PM 30.7283 -83.5764 339° North 414 476 32,000 50 Climbing Jacksonville Center
Thu 03:33:52 PM 30.8386 -83.6306 337° Northwest 419 482 32,000  Level Jacksonville Center
Thu 03:34:52 PM 30.9489 -83.6822 338° Northwest 419 482 32,000  Level Jacksonville Center
Thu 03:35:52 PM 31.0572 -83.7342 338° Northwest 419 482 32,000  Level Jacksonville Center
Thu 03:36:52 PM 31.1633 -83.7861 337° Northwest 413 475 32,000  Level Jacksonville Center
Thu 03:37:52 PM 31.2714 -83.8381 338° Northwest 413 475 32,000  Level Jacksonville Center
Thu 03:39:27 PM 31.4544 -83.9294 337° Northwest 436 502 32,000  Level Atlanta Center
Thu 03:40:27 PM 31.5650 -83.9681 343° North 431 496 32,000  Level Atlanta Center
Thu 03:41:27 PM 31.6839 -83.9950 349° North 426 490 32,000  Level Atlanta Center
Thu 03:42:27 PM 31.7967 -84.0217 349° North 426 490 32,000  Level Atlanta Center
Thu 03:43:27 PM 31.9156 -84.0461 350° North 426 490 32,000  Level Atlanta Center
Thu 03:44:27 PM 32.0181 -84.0706 349° North 421 484 32,000  Level Atlanta Center
Thu 03:45:27 PM 32.1347 -84.0953 350° North 421 484 32,000  Level Atlanta Center
Thu 03:46:27 PM 32.2517 -84.1247 348° North 421 484 32,000  Level Atlanta Center
Thu 03:47:27 PM 32.3686 -84.1447 352° North 421 484 32,000  Level Atlanta Center
Thu 03:48:27 PM 32.4811 -84.1767 347° North 421 484 32,000  Level Atlanta Center
Thu 03:49:27 PM 32.5961 -84.1992 351° North 421 484 32,000  Level Atlanta Center
Thu 03:50:27 PM 32.7128 -84.2289 348° North 421 484 32,000  Level Atlanta Center
Thu 03:51:27 PM 32.8275 -84.2564 349° North 421 484 32,000  Level Atlanta Center
Thu 03:52:27 PM 32.9550 -84.2914 347° North 421 484 32,000  Level Atlanta Center
Thu 03:53:27 PM 33.0717 -84.3114 352° North 415 478 32,000  Level Atlanta Center
Thu 03:54:27 PM 33.1844 -84.3392 348° North 415 478 32,000  Level Atlanta Center
Thu 03:55:27 PM 33.3011 -84.3619 351° North 415 478 32,000  Level Atlanta Center
Thu 03:56:27 PM 33.4181 -84.3922 348° North 415 478 32,000  Level Atlanta Center
Thu 03:57:27 PM 33.5328 -84.4150 351° North 415 478 32,000  Level Atlanta Center
Thu 03:58:27 PM 33.6475 -84.4456 347° North 415 478 32,000  Level Atlanta Center
Thu 03:59:27 PM 33.7600 -84.4686 350° North 416 479 32,000  Level Atlanta Center
Thu 04:00:27 PM 33.8747 -84.5017 347° North 416 479 32,000  Level Atlanta Center
Thu 04:01:27 PM 33.9853 -84.5197 352° North 416 479 32,000  Level Atlanta Center
Thu 04:02:27 PM 34.0981 -84.5506 347° North 425 489 32,000  Level Atlanta Center
Thu 04:03:27 PM 34.2292 -84.5789 350° North 435 501 32,000  Level Atlanta Center
Thu 04:04:27 PM 34.3461 -84.6125 347° North 429 494 32,000  Level Atlanta Center
Thu 04:05:27 PM 34.4608 -84.6358 350° North 429 494 32,000  Level Atlanta Center
Thu 04:06:27 PM 34.5753 -84.6644 348° North 423 487 32,000  Level Atlanta Center
Thu 04:07:27 PM 34.6753 -84.6903 348° North 423 487 32,000  Level Atlanta Center
Thu 04:08:27 PM 34.7900 -84.7217 347° North 418 481 32,000  Level Atlanta Center
Thu 04:09:27 PM 34.9089 -84.7481 350° North 418 481 32,000  Level Atlanta Center
Thu 04:10:27 PM 35.0214 -84.7794 347° North 418 481 32,000  Level Atlanta Center
Thu 04:11:27 PM 35.1381 -84.8058 350° North 418 481 32,000  Level Atlanta Center
Thu 04:12:27 PM 35.2547 -84.8400 347° North 418 481 32,000  Level Atlanta Center
Thu 04:13:27 PM 35.3714 -84.8639 351° North 423 487 32,000  Level Atlanta Center
Thu 04:14:27 PM 35.4878 -84.8983 346° North 423 487 32,000  Level Atlanta Center
Thu 04:15:27 PM 35.6067 -84.9225 351° North 428 493 32,000  Level Atlanta Center
Thu 04:17:19 PM 35.8228 -84.9781 348° North 426 490 32,000  Level Indianapolis Center
Thu 04:18:21 PM 35.9422 -85.0108 347° North 432 497 32,000  Level Indianapolis Center
Thu 04:19:23 PM 36.0833 -85.0411 350° North 434 499 32,000  Level Indianapolis Center
Thu 04:20:25 PM 36.1997 -85.0783 346° North 432 497 32,000  Level Indianapolis Center
Thu 04:21:26 PM 36.3203 -85.1017 351° North 433 498 32,000  Level Indianapolis Center
Thu 04:22:29 PM 36.4450 -85.1033 359° North 442 509 32,000  Level Indianapolis Center
Thu 04:23:30 PM 36.5678 -85.1114 357° North 443 510 32,000  Level Indianapolis Center
Thu 04:24:32 PM 36.6892 -85.1250 355° North 441 507 32,000  Level Indianapolis Center
Thu 04:25:34 PM 36.8133 -85.1253 360° North 441 507 32,000  Level Indianapolis Center
Thu 04:26:36 PM 36.9608 -85.1347 357° North 441 507 32,000  Level Indianapolis Center
Thu 04:27:38 PM 37.0836 -85.1578 351° North 440 506 32,000  Level Indianapolis Center
Thu 04:28:40 PM 37.2039 -85.1869 349° North 439 505 32,000  Level Indianapolis Center
Thu 04:29:42 PM 37.3183 -85.2403 340° North 437 503 32,000  Level Indianapolis Center
Thu 04:30:44 PM 37.4333 -85.2853 343° North 436 502 32,000  Level Indianapolis Center
Thu 04:31:46 PM 37.5469 -85.3394 339° North 436 502 32,000  Level Indianapolis Center
Thu 04:32:47 PM 37.6631 -85.3831 343° North 435 501 32,000  Level Indianapolis Center
Thu 04:33:49 PM 37.7964 -85.4411 341° North 435 501 32,000  Level Indianapolis Center
Thu 04:34:51 PM 37.8919 -85.4853 340° North 434 499 32,000  Level Indianapolis Center
Thu 04:35:53 PM 38.0344 -85.5497 340° North 445 512 32,000  Level Indianapolis Center
Thu 04:36:55 PM 38.1539 -85.6064 340° North 451 519 32,000  Level Indianapolis Center
Thu 04:37:57 PM 38.2678 -85.6761 334° Northwest 451 519 32,000  Level Indianapolis Center
Thu 04:38:59 PM 38.3817 -85.7383 337° Northwest 449 517 32,000  Level Indianapolis Center
Thu 04:40:01 PM 38.4956 -85.8100 334° Northwest 452 520 32,000  Level Indianapolis Center
Thu 04:41:03 PM 38.6122 -85.8719 337° Northwest 452 520 32,000  Level Indianapolis Center
Thu 04:42:05 PM 38.7247 -85.9456 333° Northwest 452 520 32,000  Level Indianapolis Center
Thu 04:43:07 PM 38.8622 -86.0256 336° Northwest 452 520 32,000  Level Indianapolis Center
Thu 04:44:08 PM 38.9597 -86.0892 333° Northwest 445 512 32,000  Level Indianapolis Center
Thu 04:45:10 PM 39.0714 -86.1486 338° Northwest 438 504 32,000  Level Indianapolis Center
Thu 04:46:12 PM 39.2022 -86.2331 333° Northwest 436 502 32,000  Level Indianapolis Center
Thu 04:47:14 PM 39.3144 -86.2961 337° Northwest 437 503 32,000  Level Indianapolis Center
Thu 04:48:16 PM 39.4239 -86.3678 333° Northwest 437 503 32,000  Level Indianapolis Center
Thu 04:49:18 PM 39.5386 -86.4328 336° Northwest 441 507 32,000  Level Indianapolis Center
Thu 04:50:19 PM 39.6492 -86.5086 332° Northwest 441 507 32,000  Level Indianapolis Center
Thu 04:51:21 PM 39.7672 -86.5739 337° Northwest 448 516 32,000  Level Indianapolis Center
Thu 04:52:23 PM 39.8781 -86.6492 332° Northwest 448 516 32,000  Level Indianapolis Center
Thu 04:53:25 PM 39.9908 -86.7097 338° Northwest 443 510 32,000  Level Indianapolis Center
Thu 04:54:26 PM 40.0975 -86.7817 333° Northwest 434 499 32,000  Level Indianapolis Center
Thu 04:55:28 PM 40.2075 -86.8469 336° Northwest 433 498 32,000  Level Indianapolis Center
Thu 04:56:30 PM 40.3372 -86.9342 333° Northwest 433 498 32,000  Level Indianapolis Center
Thu 04:57:31 PM 40.4458 -87.0072 333° Northwest 436 502 32,000  Level Indianapolis Center
Thu 04:58:33 PM 40.5125 -87.1322 305° West 420 483 32,000  Level Indianapolis Center
Thu 04:59:35 PM 40.5883 -87.2531 310° West 425 489 32,000  Level Indianapolis Center
Thu 05:01:00 PM 40.6853 -87.4272 306° West 424 488 32,000  Level Chicago Center
Thu 05:02:02 PM 40.7558 -87.5508 307° West 420 483 32,000  Level Chicago Center
Thu 05:03:05 PM 40.8217 -87.6714 306° West 408 470 32,000 -576 Level Chicago Center
Thu 05:04:07 PM 40.9025 -87.8183 306° West 412 474 30,800 -1,355 Descending Chicago Center
Thu 05:05:09 PM 40.9681 -87.9419 305° West 412 474 29,200 -1,355 Descending Chicago Center
Thu 05:06:11 PM 41.0369 -88.0611 307° West 411 473 28,000 -677 Descending Chicago Center
Thu 05:07:13 PM 41.1003 -88.1842 304° West 408 470 27,800 -629 Descending Chicago Center
Thu 05:08:15 PM 41.1731 -88.3033 309° West 410 472 26,700 -1,306 Descending Chicago Center
Thu 05:09:17 PM 41.2322 -88.4289 302° West 401 461 25,100 -1,306 Descending Chicago Center
Thu 05:10:19 PM 41.3119 -88.5661 308° West 399 459 24,000 -1,344 Descending Chicago Center
Thu 05:11:22 PM 41.3725 -88.6872 304° West 395 455 22,300 -1,824 Descending Chicago Center
Thu 05:12:24 PM 41.4408 -88.8003 309° West 396 456 20,200 -2,274 Descending Chicago Center
Thu 05:13:26 PM 41.4983 -88.9139 304° West 376 433 17,600 -2,371 Descending Chicago Center
Thu 05:14:28 PM 41.5550 -89.0181 306° West 358 412 15,300 -1,742 Descending Chicago Center
Thu 05:15:30 PM 41.6175 -89.1461 303° West 348 400 14,000 -629 Descending Chicago Center
Thu 05:16:32 PM 41.6697 -89.2328 309° West 309 356 14,000 -97 Level Chicago Center
Thu 05:17:34 PM 41.7286 -89.2964 321° Northwest 284 327 13,800 -677 Descending Chicago Center
Thu 05:18:36 PM 41.8122 -89.2622 17° North 309 356 12,600 -1,680 Descending Chicago Center
Thu 05:19:39 PM 41.8961 -89.2592 North 307 353 10,300 -2,304 Descending Chicago Center
Thu 05:20:41 PM 41.9919 -89.2786 351° North 294 338 7,800 -2,371 Descending Chicago Center
Thu 05:21:43 PM 42.0586 -89.3178 336° Northwest 277 319 5,400 -2,129 Descending Chicago Center
Thu 05:22:45 PM 42.1294 -89.3594 336° Northwest 266 306 3,400 -1,935 Descending Chicago Center
Thu 05:24:00 PM 42.1765 -89.1726 71° East  Level Estimated
Thu 05:31:00 PM 42.1954 -89.0972 14° North  Level Estimated

Login

Don't have an account? Register now (free) for customized features, flight alerts, and more!